sensor_id;sensor_type;location;lat;lon;timestamp;P1;durP1;ratioP1;P2;durP2;ratioP2
7985;SDS011;4038;42.612;23.066;2023-02-01T00:01:25;24.00;;;22.30;;
7985;SDS011;4038;42.612;23.066;2023-02-01T00:03:50;26.40;;;24.60;;
7985;SDS011;4038;42.612;23.066;2023-02-01T00:06:16;26.10;;;24.30;;
7985;SDS011;4038;42.612;23.066;2023-02-01T00:08:41;27.67;;;25.47;;
7985;SDS011;4038;42.612;23.066;2023-02-01T00:11:08;26.67;;;24.67;;
7985;SDS011;4038;42.612;23.066;2023-02-01T00:13:35;25.40;;;23.50;;
7985;SDS011;4038;42.612;23.066;2023-02-01T00:16:06;25.13;;;23.33;;
7985;SDS011;4038;42.612;23.066;2023-02-01T00:18:32;23.93;;;22.33;;
7985;SDS011;4038;42.612;23.066;2023-02-01T00:20:58;26.73;;;24.90;;
7985;SDS011;4038;42.612;23.066;2023-02-01T00:23:24;26.20;;;24.30;;
7985;SDS011;4038;42.612;23.066;2023-02-01T00:25:49;26.53;;;24.47;;
7985;SDS011;4038;42.612;23.066;2023-02-01T00:28:15;25.03;;;23.40;;
7985;SDS011;4038;42.612;23.066;2023-02-01T00:30:40;25.33;;;23.57;;
7985;SDS011;4038;42.612;23.066;2023-02-01T00:33:06;24.60;;;23.00;;
7985;SDS011;4038;42.612;23.066;2023-02-01T00:35:34;25.07;;;23.27;;
7985;SDS011;4038;42.612;23.066;2023-02-01T00:38:00;24.43;;;22.83;;
7985;SDS011;4038;42.612;23.066;2023-02-01T00:40:26;23.77;;;22.13;;
7985;SDS011;4038;42.612;23.066;2023-02-01T00:42:51;24.40;;;22.80;;
7985;SDS011;4038;42.612;23.066;2023-02-01T00:45:17;24.37;;;22.70;;
7985;SDS011;4038;42.612;23.066;2023-02-01T00:47:43;23.17;;;21.67;;
7985;SDS011;4038;42.612;23.066;2023-02-01T00:50:08;23.03;;;21.50;;
7985;SDS011;4038;42.612;23.066;2023-02-01T00:52:34;23.57;;;21.97;;
7985;SDS011;4038;42.612;23.066;2023-02-01T00:54:59;23.37;;;21.77;;
7985;SDS011;4038;42.612;23.066;2023-02-01T00:57:25;23.70;;;22.00;;
7985;SDS011;4038;42.612;23.066;2023-02-01T00:59:50;23.33;;;21.73;;
7985;SDS011;4038;42.612;23.066;2023-02-01T01:02:16;24.13;;;22.53;;
7985;SDS011;4038;42.612;23.066;2023-02-01T01:04:41;24.03;;;22.37;;
7985;SDS011;4038;42.612;23.066;2023-02-01T01:07:06;23.53;;;21.93;;
7985;SDS011;4038;42.612;23.066;2023-02-01T01:09:32;24.93;;;23.13;;
7985;SDS011;4038;42.612;23.066;2023-02-01T01:11:57;23.63;;;22.03;;
7985;SDS011;4038;42.612;23.066;2023-02-01T01:14:27;24.00;;;22.37;;
7985;SDS011;4038;42.612;23.066;2023-02-01T01:16:56;24.00;;;22.30;;
7985;SDS011;4038;42.612;23.066;2023-02-01T01:19:22;24.20;;;22.50;;
7985;SDS011;4038;42.612;23.066;2023-02-01T01:21:47;23.57;;;21.97;;
7985;SDS011;4038;42.612;23.066;2023-02-01T01:24:12;23.50;;;21.90;;
7985;SDS011;4038;42.612;23.066;2023-02-01T01:26:38;23.60;;;21.87;;
7985;SDS011;4038;42.612;23.066;2023-02-01T01:29:03;23.97;;;22.27;;
7985;SDS011;4038;42.612;23.066;2023-02-01T01:31:29;23.10;;;21.57;;
7985;SDS011;4038;42.612;23.066;2023-02-01T01:33:55;24.57;;;22.83;;
7985;SDS011;4038;42.612;23.066;2023-02-01T01:36:23;24.03;;;22.43;;
7985;SDS011;4038;42.612;23.066;2023-02-01T01:38:49;24.50;;;22.80;;
7985;SDS011;4038;42.612;23.066;2023-02-01T01:41:16;23.97;;;22.37;;
7985;SDS011;4038;42.612;23.066;2023-02-01T01:43:51;23.43;;;21.83;;
7985;SDS011;4038;42.612;23.066;2023-02-01T01:46:27;23.70;;;22.20;;
7985;SDS011;4038;42.612;23.066;2023-02-01T01:51:28;24.13;;;22.57;;
7985;SDS011;4038;42.612;23.066;2023-02-01T01:54:01;24.87;;;23.17;;
7985;SDS011;4038;42.612;23.066;2023-02-01T01:56:32;24.60;;;22.80;;
7985;SDS011;4038;42.612;23.066;2023-02-01T01:58:59;23.60;;;21.90;;
7985;SDS011;4038;42.612;23.066;2023-02-01T02:01:26;23.70;;;22.10;;
7985;SDS011;4038;42.612;23.066;2023-02-01T02:03:52;24.33;;;22.60;;
7985;SDS011;4038;42.612;23.066;2023-02-01T02:08:52;24.13;;;22.43;;
7985;SDS011;4038;42.612;23.066;2023-02-01T02:11:17;23.47;;;21.97;;
7985;SDS011;4038;42.612;23.066;2023-02-01T02:13:44;23.97;;;22.37;;
7985;SDS011;4038;42.612;23.066;2023-02-01T02:19:28;24.43;;;22.73;;
7985;SDS011;4038;42.612;23.066;2023-02-01T02:25:35;24.20;;;22.40;;
7985;SDS011;4038;42.612;23.066;2023-02-01T02:28:04;23.10;;;21.53;;
7985;SDS011;4038;42.612;23.066;2023-02-01T02:30:53;23.47;;;21.87;;
7985;SDS011;4038;42.612;23.066;2023-02-01T02:36:04;23.10;;;21.50;;
7985;SDS011;4038;42.612;23.066;2023-02-01T02:38:50;23.37;;;21.77;;
7985;SDS011;4038;42.612;23.066;2023-02-01T02:41:31;22.87;;;21.17;;
7985;SDS011;4038;42.612;23.066;2023-02-01T02:44:27;22.20;;;20.60;;
7985;SDS011;4038;42.612;23.066;2023-02-01T02:47:27;23.17;;;21.60;;
7985;SDS011;4038;42.612;23.066;2023-02-01T02:53:04;23.77;;;22.07;;
7985;SDS011;4038;42.612;23.066;2023-02-01T02:55:53;23.90;;;22.30;;
7985;SDS011;4038;42.612;23.066;2023-02-01T02:58:39;23.20;;;21.60;;
7985;SDS011;4038;42.612;23.066;2023-02-01T03:01:25;23.10;;;21.60;;
7985;SDS011;4038;42.612;23.066;2023-02-01T03:04:09;23.47;;;21.77;;
7985;SDS011;4038;42.612;23.066;2023-02-01T03:06:42;22.93;;;21.33;;
7985;SDS011;4038;42.612;23.066;2023-02-01T03:09:08;23.10;;;21.40;;
7985;SDS011;4038;42.612;23.066;2023-02-01T03:11:42;23.43;;;21.73;;
7985;SDS011;4038;42.612;23.066;2023-02-01T03:14:31;23.13;;;21.47;;
7985;SDS011;4038;42.612;23.066;2023-02-01T03:17:12;22.93;;;21.27;;
7985;SDS011;4038;42.612;23.066;2023-02-01T03:19:43;24.43;;;22.73;;
7985;SDS011;4038;42.612;23.066;2023-02-01T03:22:15;23.60;;;21.90;;
7985;SDS011;4038;42.612;23.066;2023-02-01T03:24:45;22.90;;;21.30;;
7985;SDS011;4038;42.612;23.066;2023-02-01T03:27:21;23.30;;;21.63;;
7985;SDS011;4038;42.612;23.066;2023-02-01T03:29:49;22.33;;;20.83;;
7985;SDS011;4038;42.612;23.066;2023-02-01T03:32:21;22.87;;;21.27;;
7985;SDS011;4038;42.612;23.066;2023-02-01T03:34:47;23.67;;;21.97;;
7985;SDS011;4038;42.612;23.066;2023-02-01T03:37:14;22.73;;;21.13;;
7985;SDS011;4038;42.612;23.066;2023-02-01T03:39:48;23.50;;;21.80;;
7985;SDS011;4038;42.612;23.066;2023-02-01T03:45:10;22.90;;;21.20;;
7985;SDS011;4038;42.612;23.066;2023-02-01T03:47:43;23.47;;;21.87;;
7985;SDS011;4038;42.612;23.066;2023-02-01T03:50:14;23.27;;;21.67;;
7985;SDS011;4038;42.612;23.066;2023-02-01T03:52:43;23.90;;;22.10;;
7985;SDS011;4038;42.612;23.066;2023-02-01T03:55:13;23.10;;;21.50;;
7985;SDS011;4038;42.612;23.066;2023-02-01T03:57:43;23.67;;;21.77;;
7985;SDS011;4038;42.612;23.066;2023-02-01T04:00:18;22.80;;;20.63;;
7985;SDS011;4038;42.612;23.066;2023-02-01T04:02:49;22.63;;;20.90;;
7985;SDS011;4038;42.612;23.066;2023-02-01T04:05:15;23.13;;;21.30;;
7985;SDS011;4038;42.612;23.066;2023-02-01T04:07:40;23.57;;;21.77;;
7985;SDS011;4038;42.612;23.066;2023-02-01T04:10:06;22.17;;;20.57;;
7985;SDS011;4038;42.612;23.066;2023-02-01T04:12:32;22.00;;;20.50;;
7985;SDS011;4038;42.612;23.066;2023-02-01T04:14:57;23.07;;;21.27;;
7985;SDS011;4038;42.612;23.066;2023-02-01T04:17:23;22.17;;;20.57;;
7985;SDS011;4038;42.612;23.066;2023-02-01T04:19:48;22.93;;;21.03;;
7985;SDS011;4038;42.612;23.066;2023-02-01T04:22:14;27.13;;;25.07;;
7985;SDS011;4038;42.612;23.066;2023-02-01T04:24:39;22.83;;;21.20;;
7985;SDS011;4038;42.612;23.066;2023-02-01T04:27:04;22.53;;;21.03;;
7985;SDS011;4038;42.612;23.066;2023-02-01T04:29:30;21.67;;;20.13;;
7985;SDS011;4038;42.612;23.066;2023-02-01T04:31:55;23.13;;;21.43;;
7985;SDS011;4038;42.612;23.066;2023-02-01T04:34:21;23.13;;;21.43;;
7985;SDS011;4038;42.612;23.066;2023-02-01T04:36:47;22.53;;;20.93;;
7985;SDS011;4038;42.612;23.066;2023-02-01T04:39:13;23.20;;;21.33;;
7985;SDS011;4038;42.612;23.066;2023-02-01T04:41:39;25.50;;;23.40;;
7985;SDS011;4038;42.612;23.066;2023-02-01T04:44:04;24.30;;;22.30;;
7985;SDS011;4038;42.612;23.066;2023-02-01T04:46:29;25.17;;;23.13;;
7985;SDS011;4038;42.612;23.066;2023-02-01T04:48:55;23.80;;;21.90;;
7985;SDS011;4038;42.612;23.066;2023-02-01T04:51:20;23.77;;;21.67;;
7985;SDS011;4038;42.612;23.066;2023-02-01T04:53:46;24.13;;;22.23;;
7985;SDS011;4038;42.612;23.066;2023-02-01T04:56:12;24.63;;;22.73;;
7985;SDS011;4038;42.612;23.066;2023-02-01T04:58:37;23.43;;;21.53;;
7985;SDS011;4038;42.612;23.066;2023-02-01T05:01:03;23.37;;;21.57;;
7985;SDS011;4038;42.612;23.066;2023-02-01T05:03:30;23.47;;;21.77;;
7985;SDS011;4038;42.612;23.066;2023-02-01T05:05:59;24.87;;;22.83;;
7985;SDS011;4038;42.612;23.066;2023-02-01T05:08:25;23.87;;;21.90;;
7985;SDS011;4038;42.612;23.066;2023-02-01T05:10:51;25.30;;;23.10;;
7985;SDS011;4038;42.612;23.066;2023-02-01T05:13:17;25.37;;;23.10;;
7985;SDS011;4038;42.612;23.066;2023-02-01T05:16:01;24.33;;;22.43;;
7985;SDS011;4038;42.612;23.066;2023-02-01T05:18:26;26.07;;;23.70;;
7985;SDS011;4038;42.612;23.066;2023-02-01T05:20:52;25.50;;;23.30;;
7985;SDS011;4038;42.612;23.066;2023-02-01T05:23:17;24.90;;;22.80;;
7985;SDS011;4038;42.612;23.066;2023-02-01T05:25:43;26.67;;;24.20;;
7985;SDS011;4038;42.612;23.066;2023-02-01T05:28:08;23.87;;;22.17;;
7985;SDS011;4038;42.612;23.066;2023-02-01T05:30:34;24.73;;;22.77;;
7985;SDS011;4038;42.612;23.066;2023-02-01T05:33:00;24.57;;;22.67;;
7985;SDS011;4038;42.612;23.066;2023-02-01T05:35:26;24.47;;;22.67;;
7985;SDS011;4038;42.612;23.066;2023-02-01T05:37:51;25.07;;;23.17;;
7985;SDS011;4038;42.612;23.066;2023-02-01T05:40:17;25.33;;;23.33;;
7985;SDS011;4038;42.612;23.066;2023-02-01T05:42:42;25.87;;;23.50;;
7985;SDS011;4038;42.612;23.066;2023-02-01T05:45:08;23.30;;;21.60;;
7985;SDS011;4038;42.612;23.066;2023-02-01T05:47:34;23.47;;;21.67;;
7985;SDS011;4038;42.612;23.066;2023-02-01T05:49:59;24.17;;;22.33;;
7985;SDS011;4038;42.612;23.066;2023-02-01T05:52:24;22.57;;;20.97;;
7985;SDS011;4038;42.612;23.066;2023-02-01T05:54:50;22.93;;;21.20;;
7985;SDS011;4038;42.612;23.066;2023-02-01T05:57:15;24.07;;;22.27;;
7985;SDS011;4038;42.612;23.066;2023-02-01T05:59:41;22.77;;;21.17;;
7985;SDS011;4038;42.612;23.066;2023-02-01T06:02:08;22.67;;;21.00;;
7985;SDS011;4038;42.612;23.066;2023-02-01T06:04:34;24.47;;;22.67;;
7985;SDS011;4038;42.612;23.066;2023-02-01T06:07:00;24.13;;;22.33;;
7985;SDS011;4038;42.612;23.066;2023-02-01T06:09:26;25.23;;;23.27;;
7985;SDS011;4038;42.612;23.066;2023-02-01T06:11:51;25.50;;;23.60;;
7985;SDS011;4038;42.612;23.066;2023-02-01T06:14:16;31.23;;;28.67;;
7985;SDS011;4038;42.612;23.066;2023-02-01T06:16:42;29.70;;;27.20;;
7985;SDS011;4038;42.612;23.066;2023-02-01T06:19:07;27.23;;;25.00;;
7985;SDS011;4038;42.612;23.066;2023-02-01T06:21:34;27.40;;;25.13;;
7985;SDS011;4038;42.612;23.066;2023-02-01T06:24:01;26.30;;;24.23;;
7985;SDS011;4038;42.612;23.066;2023-02-01T06:26:26;24.33;;;22.23;;
7985;SDS011;4038;42.612;23.066;2023-02-01T06:28:53;23.70;;;22.00;;
7985;SDS011;4038;42.612;23.066;2023-02-01T06:31:20;23.93;;;22.17;;
7985;SDS011;4038;42.612;23.066;2023-02-01T06:33:45;24.10;;;22.30;;
7985;SDS011;4038;42.612;23.066;2023-02-01T06:36:12;23.93;;;22.03;;
7985;SDS011;4038;42.612;23.066;2023-02-01T06:38:38;24.43;;;22.57;;
7985;SDS011;4038;42.612;23.066;2023-02-01T06:41:04;23.77;;;21.97;;
7985;SDS011;4038;42.612;23.066;2023-02-01T06:43:30;25.37;;;23.43;;
7985;SDS011;4038;42.612;23.066;2023-02-01T06:46:02;25.77;;;23.57;;
7985;SDS011;4038;42.612;23.066;2023-02-01T06:48:30;30.27;;;27.47;;
7985;SDS011;4038;42.612;23.066;2023-02-01T06:50:56;29.97;;;27.27;;
7985;SDS011;4038;42.612;23.066;2023-02-01T06:53:21;29.70;;;26.57;;
7985;SDS011;4038;42.612;23.066;2023-02-01T06:55:57;25.70;;;23.50;;
7985;SDS011;4038;42.612;23.066;2023-02-01T06:58:31;29.27;;;26.53;;
7985;SDS011;4038;42.612;23.066;2023-02-01T07:00:58;27.50;;;25.20;;
7985;SDS011;4038;42.612;23.066;2023-02-01T07:03:29;27.93;;;25.63;;
7985;SDS011;4038;42.612;23.066;2023-02-01T07:05:55;28.90;;;26.23;;
7985;SDS011;4038;42.612;23.066;2023-02-01T07:08:23;28.73;;;26.30;;
7985;SDS011;4038;42.612;23.066;2023-02-01T07:10:49;28.00;;;25.53;;
7985;SDS011;4038;42.612;23.066;2023-02-01T07:13:15;29.23;;;26.17;;
7985;SDS011;4038;42.612;23.066;2023-02-01T07:15:40;27.03;;;24.83;;
7985;SDS011;4038;42.612;23.066;2023-02-01T07:18:05;26.40;;;24.10;;
7985;SDS011;4038;42.612;23.066;2023-02-01T07:20:31;28.80;;;26.03;;
7985;SDS011;4038;42.612;23.066;2023-02-01T07:22:56;32.83;;;27.13;;
7985;SDS011;4038;42.612;23.066;2023-02-01T07:25:23;29.93;;;27.33;;
7985;SDS011;4038;42.612;23.066;2023-02-01T07:27:48;28.63;;;26.03;;
7985;SDS011;4038;42.612;23.066;2023-02-01T07:30:14;29.43;;;26.43;;
7985;SDS011;4038;42.612;23.066;2023-02-01T07:32:39;27.17;;;24.70;;
7985;SDS011;4038;42.612;23.066;2023-02-01T07:35:05;27.33;;;25.17;;
7985;SDS011;4038;42.612;23.066;2023-02-01T07:37:30;27.27;;;25.17;;
7985;SDS011;4038;42.612;23.066;2023-02-01T07:39:56;27.27;;;24.77;;
7985;SDS011;4038;42.612;23.066;2023-02-01T07:42:21;26.50;;;24.30;;
7985;SDS011;4038;42.612;23.066;2023-02-01T07:44:47;25.73;;;23.43;;
7985;SDS011;4038;42.612;23.066;2023-02-01T07:47:12;25.90;;;23.60;;
7985;SDS011;4038;42.612;23.066;2023-02-01T07:49:38;27.40;;;24.57;;
7985;SDS011;4038;42.612;23.066;2023-02-01T07:52:04;27.17;;;24.50;;
7985;SDS011;4038;42.612;23.066;2023-02-01T07:54:29;26.60;;;24.20;;
7985;SDS011;4038;42.612;23.066;2023-02-01T07:56:55;27.33;;;24.87;;
7985;SDS011;4038;42.612;23.066;2023-02-01T07:59:21;27.40;;;25.00;;
7985;SDS011;4038;42.612;23.066;2023-02-01T08:01:46;25.40;;;23.50;;
7985;SDS011;4038;42.612;23.066;2023-02-01T08:04:12;25.87;;;23.77;;
7985;SDS011;4038;42.612;23.066;2023-02-01T08:06:38;25.33;;;23.23;;
7985;SDS011;4038;42.612;23.066;2023-02-01T08:09:05;25.40;;;23.30;;
7985;SDS011;4038;42.612;23.066;2023-02-01T08:11:32;25.83;;;23.50;;
7985;SDS011;4038;42.612;23.066;2023-02-01T08:13:58;24.20;;;22.10;;
7985;SDS011;4038;42.612;23.066;2023-02-01T08:16:25;24.77;;;22.67;;
7985;SDS011;4038;42.612;23.066;2023-02-01T08:18:51;25.60;;;23.63;;
7985;SDS011;4038;42.612;23.066;2023-02-01T08:21:24;26.33;;;24.33;;
7985;SDS011;4038;42.612;23.066;2023-02-01T08:23:53;26.50;;;24.07;;
7985;SDS011;4038;42.612;23.066;2023-02-01T08:26:19;26.13;;;23.63;;
7985;SDS011;4038;42.612;23.066;2023-02-01T08:28:54;26.60;;;24.00;;
7985;SDS011;4038;42.612;23.066;2023-02-01T08:31:23;27.80;;;25.37;;
7985;SDS011;4038;42.612;23.066;2023-02-01T08:33:51;26.60;;;24.17;;
7985;SDS011;4038;42.612;23.066;2023-02-01T08:36:22;25.03;;;22.93;;
7985;SDS011;4038;42.612;23.066;2023-02-01T08:38:49;24.40;;;22.60;;
7985;SDS011;4038;42.612;23.066;2023-02-01T08:41:19;25.43;;;23.27;;
7985;SDS011;4038;42.612;23.066;2023-02-01T08:43:47;25.90;;;23.90;;
7985;SDS011;4038;42.612;23.066;2023-02-01T08:46:13;23.43;;;21.73;;
7985;SDS011;4038;42.612;23.066;2023-02-01T08:48:41;24.90;;;22.93;;
7985;SDS011;4038;42.612;23.066;2023-02-01T08:51:07;25.03;;;23.23;;
7985;SDS011;4038;42.612;23.066;2023-02-01T08:53:35;24.70;;;22.70;;
7985;SDS011;4038;42.612;23.066;2023-02-01T08:56:01;25.13;;;23.13;;
7985;SDS011;4038;42.612;23.066;2023-02-01T08:58:27;23.73;;;21.83;;
7985;SDS011;4038;42.612;23.066;2023-02-01T09:00:53;24.90;;;22.97;;
7985;SDS011;4038;42.612;23.066;2023-02-01T09:03:18;24.47;;;22.43;;
7985;SDS011;4038;42.612;23.066;2023-02-01T09:05:51;24.50;;;22.63;;
7985;SDS011;4038;42.612;23.066;2023-02-01T09:08:17;24.27;;;22.33;;
7985;SDS011;4038;42.612;23.066;2023-02-01T09:10:43;24.23;;;22.43;;
7985;SDS011;4038;42.612;23.066;2023-02-01T09:13:09;23.87;;;22.03;;
7985;SDS011;4038;42.612;23.066;2023-02-01T09:15:34;24.43;;;22.43;;
7985;SDS011;4038;42.612;23.066;2023-02-01T09:18:02;23.33;;;21.73;;
7985;SDS011;4038;42.612;23.066;2023-02-01T09:20:28;23.20;;;21.60;;
7985;SDS011;4038;42.612;23.066;2023-02-01T09:22:54;24.27;;;22.58;;
7985;SDS011;4038;42.612;23.066;2023-02-01T09:25:20;23.05;;;21.48;;
7985;SDS011;4038;42.612;23.066;2023-02-01T09:27:45;23.35;;;21.77;;
7985;SDS011;4038;42.612;23.066;2023-02-01T09:30:11;22.85;;;21.25;;
7985;SDS011;4038;42.612;23.066;2023-02-01T09:32:37;24.90;;;22.83;;
7985;SDS011;4038;42.612;23.066;2023-02-01T09:35:03;26.85;;;24.48;;
7985;SDS011;4038;42.612;23.066;2023-02-01T09:37:28;26.10;;;24.08;;
7985;SDS011;4038;42.612;23.066;2023-02-01T09:39:53;23.50;;;21.80;;
7985;SDS011;4038;42.612;23.066;2023-02-01T09:45:20;22.45;;;20.95;;
7985;SDS011;4038;42.612;23.066;2023-02-01T09:47:53;22.45;;;20.95;;
7985;SDS011;4038;42.612;23.066;2023-02-01T09:50:24;22.40;;;20.80;;
7985;SDS011;4038;42.612;23.066;2023-02-01T09:53:01;22.93;;;21.23;;
7985;SDS011;4038;42.612;23.066;2023-02-01T09:55:41;24.90;;;22.87;;
7985;SDS011;4038;42.612;23.066;2023-02-01T10:01:02;24.50;;;22.80;;
7985;SDS011;4038;42.612;23.066;2023-02-01T10:03:30;27.20;;;25.10;;
7985;SDS011;4038;42.612;23.066;2023-02-01T10:06:02;26.67;;;24.57;;
7985;SDS011;4038;42.612;23.066;2023-02-01T10:25:46;24.97;;;23.17;;
7985;SDS011;4038;42.612;23.066;2023-02-01T10:28:17;24.58;;;22.83;;
7985;SDS011;4038;42.612;23.066;2023-02-01T10:30:44;25.17;;;23.37;;
7985;SDS011;4038;42.612;23.066;2023-02-01T10:35:41;23.85;;;22.05;;
7985;SDS011;4038;42.612;23.066;2023-02-01T10:38:43;24.27;;;22.50;;
7985;SDS011;4038;42.612;23.066;2023-02-01T10:41:03;23.80;;;22.10;;
7985;SDS011;4038;42.612;23.066;2023-02-01T10:43:36;24.73;;;22.92;;
7985;SDS011;4038;42.612;23.066;2023-02-01T10:46:03;24.63;;;22.83;;
7985;SDS011;4038;42.612;23.066;2023-02-01T10:48:29;23.60;;;22.10;;
7985;SDS011;4038;42.612;23.066;2023-02-01T10:53:57;23.43;;;21.83;;
7985;SDS011;4038;42.612;23.066;2023-02-01T10:56:26;25.10;;;23.40;;
7985;SDS011;4038;42.612;23.066;2023-02-01T10:58:59;23.20;;;21.60;;
7985;SDS011;4038;42.612;23.066;2023-02-01T11:01:39;24.37;;;22.47;;
7985;SDS011;4038;42.612;23.066;2023-02-01T11:04:10;25.10;;;23.20;;
7985;SDS011;4038;42.612;23.066;2023-02-01T11:11:35;23.27;;;21.67;;
7985;SDS011;4038;42.612;23.066;2023-02-01T11:14:19;23.60;;;21.90;;
7985;SDS011;4038;42.612;23.066;2023-02-01T11:16:56;26.37;;;24.17;;
7985;SDS011;4038;42.612;23.066;2023-02-01T11:19:23;25.87;;;23.87;;
7985;SDS011;4038;42.612;23.066;2023-02-01T11:21:50;26.50;;;24.50;;
7985;SDS011;4038;42.612;23.066;2023-02-01T11:24:27;27.47;;;24.97;;
7985;SDS011;4038;42.612;23.066;2023-02-01T11:26:56;24.40;;;22.70;;
7985;SDS011;4038;42.612;23.066;2023-02-01T11:29:24;24.30;;;22.50;;
7985;SDS011;4038;42.612;23.066;2023-02-01T11:31:55;25.53;;;23.60;;
7985;SDS011;4038;42.612;23.066;2023-02-01T11:34:24;24.67;;;22.80;;
7985;SDS011;4038;42.612;23.066;2023-02-01T11:36:55;24.23;;;22.53;;
7985;SDS011;4038;42.612;23.066;2023-02-01T11:39:29;23.70;;;22.03;;
7985;SDS011;4038;42.612;23.066;2023-02-01T11:44:29;24.83;;;22.97;;
7985;SDS011;4038;42.612;23.066;2023-02-01T11:49:56;25.30;;;23.60;;
7985;SDS011;4038;42.612;23.066;2023-02-01T12:03:03;28.35;;;26.23;;
7985;SDS011;4038;42.612;23.066;2023-02-01T12:11:37;26.65;;;24.67;;
7985;SDS011;4038;42.612;23.066;2023-02-01T12:19:31;25.40;;;23.38;;
7985;SDS011;4038;42.612;23.066;2023-02-01T12:28:04;24.92;;;23.13;;
7985;SDS011;4038;42.612;23.066;2023-02-01T12:33:30;23.10;;;21.40;;
7985;SDS011;4038;42.612;23.066;2023-02-01T12:46:40;29.25;;;26.95;;
7985;SDS011;4038;42.612;23.066;2023-02-01T12:51:52;24.50;;;22.80;;
7985;SDS011;4038;42.612;23.066;2023-02-01T12:54:31;23.95;;;21.95;;
7985;SDS011;4038;42.612;23.066;2023-02-01T12:57:35;33.90;;;30.48;;
7985;SDS011;4038;42.612;23.066;2023-02-01T13:00:19;30.92;;;27.88;;
7985;SDS011;4038;42.612;23.066;2023-02-01T13:05:18;23.98;;;22.27;;
7985;SDS011;4038;42.612;23.066;2023-02-01T13:10:43;23.52;;;21.77;;
7985;SDS011;4038;42.612;23.066;2023-02-01T13:15:43;24.63;;;22.83;;
7985;SDS011;4038;42.612;23.066;2023-02-01T13:18:17;23.38;;;21.67;;
7985;SDS011;4038;42.612;23.066;2023-02-01T13:20:47;23.08;;;21.33;;
7985;SDS011;4038;42.612;23.066;2023-02-01T13:26:15;23.83;;;22.13;;
7985;SDS011;4038;42.612;23.066;2023-02-01T13:36:18;23.70;;;22.10;;
7985;SDS011;4038;42.612;23.066;2023-02-01T13:42:16;23.17;;;21.55;;
7985;SDS011;4038;42.612;23.066;2023-02-01T13:44:47;22.80;;;21.10;;
7985;SDS011;4038;42.612;23.066;2023-02-01T13:49:53;23.02;;;21.45;;
7985;SDS011;4038;42.612;23.066;2023-02-01T13:55:14;23.27;;;21.55;;
7985;SDS011;4038;42.612;23.066;2023-02-01T13:57:58;24.42;;;22.55;;
7985;SDS011;4038;42.612;23.066;2023-02-01T14:00:44;23.50;;;21.35;;
7985;SDS011;4038;42.612;23.066;2023-02-01T14:03:14;22.20;;;20.60;;
7985;SDS011;4038;42.612;23.066;2023-02-01T14:06:16;22.33;;;20.63;;
7985;SDS011;4038;42.612;23.066;2023-02-01T14:08:42;22.98;;;21.38;;
7985;SDS011;4038;42.612;23.066;2023-02-01T14:14:05;23.48;;;21.75;;
7985;SDS011;4038;42.612;23.066;2023-02-01T14:19:21;23.40;;;21.75;;
7985;SDS011;4038;42.612;23.066;2023-02-01T14:21:57;22.80;;;21.30;;
7985;SDS011;4038;42.612;23.066;2023-02-01T14:24:29;22.58;;;20.98;;
7985;SDS011;4038;42.612;23.066;2023-02-01T14:26:58;23.05;;;21.25;;
7985;SDS011;4038;42.612;23.066;2023-02-01T14:29:30;22.90;;;21.40;;
7985;SDS011;4038;42.612;23.066;2023-02-01T14:35:01;23.33;;;21.73;;
7985;SDS011;4038;42.612;23.066;2023-02-01T14:37:32;22.23;;;20.63;;
7985;SDS011;4038;42.612;23.066;2023-02-01T14:42:38;24.83;;;22.90;;
7985;SDS011;4038;42.612;23.066;2023-02-01T14:47:48;25.33;;;23.53;;
7985;SDS011;4038;42.612;23.066;2023-02-01T14:55:35;25.37;;;23.53;;
7985;SDS011;4038;42.612;23.066;2023-02-01T14:58:04;24.60;;;22.80;;
7985;SDS011;4038;42.612;23.066;2023-02-01T15:00:41;25.23;;;23.33;;
7985;SDS011;4038;42.612;23.066;2023-02-01T15:05:45;24.70;;;22.80;;
7985;SDS011;4038;42.612;23.066;2023-02-01T15:08:15;24.67;;;22.97;;
7985;SDS011;4038;42.612;23.066;2023-02-01T15:10:45;24.17;;;22.57;;
7985;SDS011;4038;42.612;23.066;2023-02-01T15:13:22;26.23;;;24.33;;
7985;SDS011;4038;42.612;23.066;2023-02-01T15:16:03;26.00;;;23.90;;
7985;SDS011;4038;42.612;23.066;2023-02-01T15:18:33;24.17;;;22.40;;
7985;SDS011;4038;42.612;23.066;2023-02-01T15:20:59;21.97;;;20.47;;
7985;SDS011;4038;42.612;23.066;2023-02-01T15:23:26;24.53;;;22.87;;
7985;SDS011;4038;42.612;23.066;2023-02-01T15:25:53;27.50;;;25.20;;
7985;SDS011;4038;42.612;23.066;2023-02-01T15:28:18;29.37;;;27.00;;
7985;SDS011;4038;42.612;23.066;2023-02-01T15:30:58;29.97;;;27.27;;
7985;SDS011;4038;42.612;23.066;2023-02-01T15:33:25;28.53;;;25.93;;
7985;SDS011;4038;42.612;23.066;2023-02-01T15:35:53;29.63;;;27.10;;
7985;SDS011;4038;42.612;23.066;2023-02-01T15:44:01;33.57;;;29.93;;
7985;SDS011;4038;42.612;23.066;2023-02-01T15:46:39;29.53;;;26.93;;
7985;SDS011;4038;42.612;23.066;2023-02-01T15:51:51;39.03;;;34.60;;
7985;SDS011;4038;42.612;23.066;2023-02-01T15:54:20;34.87;;;31.50;;
7985;SDS011;4038;42.612;23.066;2023-02-01T15:56:51;34.47;;;31.07;;
7985;SDS011;4038;42.612;23.066;2023-02-01T15:59:20;34.47;;;30.90;;
7985;SDS011;4038;42.612;23.066;2023-02-01T16:01:53;34.43;;;31.10;;
7985;SDS011;4038;42.612;23.066;2023-02-01T16:06:50;36.13;;;32.10;;
7985;SDS011;4038;42.612;23.066;2023-02-01T16:09:21;34.57;;;31.07;;
7985;SDS011;4038;42.612;23.066;2023-02-01T16:11:54;33.00;;;29.73;;
7985;SDS011;4038;42.612;23.066;2023-02-01T16:14:20;29.47;;;26.87;;
7985;SDS011;4038;42.612;23.066;2023-02-01T16:16:46;29.80;;;26.93;;
7985;SDS011;4038;42.612;23.066;2023-02-01T16:19:11;29.70;;;26.63;;
7985;SDS011;4038;42.612;23.066;2023-02-01T16:21:37;28.10;;;25.67;;
7985;SDS011;4038;42.612;23.066;2023-02-01T16:24:02;27.43;;;25.00;;
7985;SDS011;4038;42.612;23.066;2023-02-01T16:26:32;27.50;;;25.17;;
7985;SDS011;4038;42.612;23.066;2023-02-01T16:28:59;28.90;;;26.23;;
7985;SDS011;4038;42.612;23.066;2023-02-01T16:31:29;25.87;;;23.67;;
7985;SDS011;4038;42.612;23.066;2023-02-01T16:33:56;27.23;;;24.80;;
7985;SDS011;4038;42.612;23.066;2023-02-01T16:36:21;27.33;;;25.03;;
7985;SDS011;4038;42.612;23.066;2023-02-01T16:38:47;28.77;;;26.00;;
7985;SDS011;4038;42.612;23.066;2023-02-01T16:41:14;28.13;;;25.70;;
7985;SDS011;4038;42.612;23.066;2023-02-01T16:43:41;25.90;;;23.60;;
7985;SDS011;4038;42.612;23.066;2023-02-01T16:46:17;26.53;;;24.40;;
7985;SDS011;4038;42.612;23.066;2023-02-01T16:48:50;25.70;;;23.60;;
7985;SDS011;4038;42.612;23.066;2023-02-01T16:51:18;26.03;;;23.63;;
7985;SDS011;4038;42.612;23.066;2023-02-01T16:53:44;25.40;;;23.30;;
7985;SDS011;4038;42.612;23.066;2023-02-01T16:56:43;29.23;;;26.73;;
7985;SDS011;4038;42.612;23.066;2023-02-01T16:59:05;27.33;;;24.93;;
7985;SDS011;4038;42.612;23.066;2023-02-01T17:01:30;28.20;;;25.90;;
7985;SDS011;4038;42.612;23.066;2023-02-01T17:03:57;27.33;;;24.70;;
7985;SDS011;4038;42.612;23.066;2023-02-01T17:06:23;28.33;;;25.83;;
7985;SDS011;4038;42.612;23.066;2023-02-01T17:08:50;27.57;;;25.30;;
7985;SDS011;4038;42.612;23.066;2023-02-01T17:11:18;28.27;;;26.07;;
7985;SDS011;4038;42.612;23.066;2023-02-01T17:13:44;29.97;;;27.13;;
7985;SDS011;4038;42.612;23.066;2023-02-01T17:16:29;28.70;;;25.97;;
7985;SDS011;4038;42.612;23.066;2023-02-01T17:18:57;29.03;;;25.80;;
7985;SDS011;4038;42.612;23.066;2023-02-01T17:21:25;28.37;;;25.83;;
7985;SDS011;4038;42.612;23.066;2023-02-01T17:23:53;26.53;;;24.47;;
7985;SDS011;4038;42.612;23.066;2023-02-01T17:26:19;30.17;;;27.37;;
7985;SDS011;4038;42.612;23.066;2023-02-01T17:28:45;30.77;;;27.80;;